createdAt,value
2018-03-25T00:01:25.708Z,22.27
2018-03-25T00:03:52.113Z,19.70
2018-03-25T00:06:18.518Z,20.83
2018-03-25T00:08:44.759Z,21.53
2018-03-25T00:11:11.048Z,19.20
2018-03-25T00:13:38.089Z,21.90
2018-03-25T00:16:04.423Z,19.50
2018-03-25T00:18:30.650Z,22.07
2018-03-25T00:20:57.696Z,20.03
2018-03-25T00:23:23.991Z,20.83
2018-03-25T00:25:51.195Z,21.37
2018-03-25T00:28:17.534Z,20.90
2018-03-25T00:30:43.746Z,22.47
2018-03-25T00:33:10.808Z,21.30
2018-03-25T00:35:37.895Z,21.03
2018-03-25T00:38:07.998Z,22.27
2018-03-25T00:40:35.593Z,20.93
2018-03-25T00:43:01.899Z,20.27
2018-03-25T00:45:28.148Z,19.30
2018-03-25T00:47:54.421Z,20.90
2018-03-25T00:50:20.780Z,20.93
2018-03-25T00:52:47.098Z,20.67
2018-03-25T00:55:13.398Z,21.17
2018-03-25T00:57:39.674Z,19.67
2018-03-25T01:00:05.951Z,20.97
2018-03-25T01:02:32.863Z,20.53
2018-03-25T01:04:59.842Z,21.47
2018-03-25T01:07:26.086Z,20.60
2018-03-25T01:09:52.355Z,20.03
2018-03-25T01:12:18.677Z,19.73
2018-03-25T01:14:44.974Z,20.20
2018-03-25T01:17:11.229Z,21.30
2018-03-25T01:19:38.271Z,20.20
2018-03-25T01:22:04.508Z,19.70
2018-03-25T01:24:30.765Z,20.47
2018-03-25T01:26:57.006Z,21.83
2018-03-25T01:29:23.300Z,20.17
2018-03-25T01:31:49.538Z,20.70
2018-03-25T01:34:15.789Z,18.70
2018-03-25T01:36:42.055Z,21.20
2018-03-25T01:39:08.322Z,22.27
2018-03-25T01:41:35.442Z,21.97
2018-03-25T01:44:01.751Z,20.77
2018-03-25T01:46:28.023Z,21.67
2018-03-25T01:48:54.287Z,22.13
2018-03-25T01:51:20.552Z,21.20
2018-03-25T01:53:47.529Z,22.43
2018-03-25T01:56:13.804Z,21.57
2018-03-25T01:58:40.053Z,22.57
2018-03-25T02:01:06.722Z,20.67
2018-03-25T02:03:33.689Z,20.70
2018-03-25T02:05:59.946Z,21.63
2018-03-25T02:08:26.945Z,22.00
2018-03-25T02:10:53.176Z,22.37
2018-03-25T02:13:19.470Z,22.10
2018-03-25T02:15:45.726Z,22.40
2018-03-25T02:18:12.774Z,20.90
2018-03-25T02:20:39.069Z,22.87
2018-03-25T02:23:05.370Z,21.70
2018-03-25T02:25:32.364Z,20.00
2018-03-25T02:27:58.641Z,22.47
2018-03-25T02:30:25.106Z,20.03
2018-03-25T02:32:51.573Z,21.13
2018-03-25T02:35:17.889Z,21.20
2018-03-25T02:37:44.470Z,20.97
2018-03-25T02:40:11.620Z,20.57
2018-03-25T02:42:38.833Z,20.70
2018-03-25T02:45:05.172Z,19.80
2018-03-25T02:47:31.466Z,21.13
2018-03-25T02:49:58.580Z,20.57
2018-03-25T02:52:24.944Z,19.80
2018-03-25T02:54:51.975Z,20.30
2018-03-25T02:57:18.430Z,21.00
2018-03-25T02:59:44.734Z,19.47
2018-03-25T03:02:11.184Z,20.97
2018-03-25T03:04:37.706Z,21.43
2018-03-25T03:07:04.878Z,21.20
2018-03-25T03:09:31.332Z,20.43
2018-03-25T03:11:58.445Z,19.17
2018-03-25T03:14:24.855Z,18.27
2018-03-25T03:16:51.296Z,21.00
2018-03-25T03:19:17.696Z,22.00
2018-03-25T03:21:44.039Z,22.00
2018-03-25T03:24:10.372Z,22.10
2018-03-25T03:26:36.725Z,23.13
2018-03-25T03:29:03.116Z,22.30
2018-03-25T03:31:29.525Z,22.00
2018-03-25T03:33:55.816Z,22.20
2018-03-25T03:36:22.167Z,22.13
2018-03-25T03:38:48.582Z,22.13
2018-03-25T03:41:15.639Z,20.93
2018-03-25T03:43:42.002Z,22.43
2018-03-25T03:46:09.204Z,21.50
2018-03-25T03:48:35.599Z,21.23
2018-03-25T03:51:02.689Z,21.03
2018-03-25T03:53:28.917Z,20.37
2018-03-25T03:55:55.188Z,21.73
2018-03-25T03:58:21.458Z,20.97
2018-03-25T04:00:47.909Z,21.10
2018-03-25T04:03:14.272Z,19.07
2018-03-25T04:05:41.291Z,21.73
2018-03-25T04:08:07.607Z,21.63
2018-03-25T04:10:33.878Z,21.87
2018-03-25T04:13:00.118Z,19.53
2018-03-25T04:15:26.445Z,20.07
2018-03-25T04:17:52.784Z,21.73
2018-03-25T04:20:19.114Z,21.03
2018-03-25T04:22:45.482Z,21.40
2018-03-25T04:25:11.732Z,20.57
2018-03-25T04:27:38.024Z,20.60
2018-03-25T04:30:04.281Z,20.90
2018-03-25T04:32:31.525Z,19.33
2018-03-25T04:34:58.569Z,19.70
2018-03-25T04:37:25.558Z,19.70
2018-03-25T04:39:51.862Z,20.43
2018-03-25T04:42:18.125Z,20.90
2018-03-25T04:44:48.177Z,21.90
2018-03-25T04:47:14.422Z,22.20
2018-03-25T04:49:40.915Z,20.53
2018-03-25T04:52:07.183Z,21.27
2018-03-25T04:54:34.168Z,21.40
2018-03-25T04:57:00.436Z,20.50
2018-03-25T04:59:26.684Z,22.03
2018-03-25T05:01:52.928Z,22.13
2018-03-25T05:04:19.223Z,21.07
2018-03-25T05:06:45.506Z,21.37
2018-03-25T05:09:11.756Z,21.93
2018-03-25T05:11:38.008Z,22.00
2018-03-25T05:14:04.278Z,22.23
2018-03-25T05:16:31.272Z,20.47
2018-03-25T05:18:57.519Z,22.43
2018-03-25T05:21:23.810Z,22.23
2018-03-25T05:23:50.791Z,22.27
2018-03-25T05:26:17.036Z,23.00
2018-03-25T05:28:43.316Z,22.13
2018-03-25T05:31:09.556Z,21.60
2018-03-25T05:33:35.904Z,22.93
2018-03-25T05:36:02.194Z,22.67
2018-03-25T05:38:28.431Z,22.30
2018-03-25T05:40:55.425Z,21.87
2018-03-25T05:43:21.712Z,22.60
2018-03-25T05:45:48.772Z,22.77
2018-03-25T05:48:15.777Z,22.37
2018-03-25T05:50:42.085Z,22.93
2018-03-25T05:53:09.087Z,22.83
2018-03-25T05:55:35.340Z,22.97
2018-03-25T05:58:01.603Z,23.23
2018-03-25T06:00:27.877Z,21.30
2018-03-25T06:02:54.917Z,23.40
2018-03-25T06:05:21.232Z,22.47
2018-03-25T06:07:47.630Z,23.33
2018-03-25T06:10:13.827Z,21.90
2018-03-25T06:12:40.144Z,22.53
2018-03-25T06:15:06.414Z,23.10
2018-03-25T06:17:32.620Z,22.67
2018-03-25T06:19:58.916Z,22.97
2018-03-25T06:22:25.246Z,23.50
2018-03-25T06:24:51.552Z,21.70
2018-03-25T06:27:17.833Z,23.00
2018-03-25T06:29:44.138Z,23.73
2018-03-25T06:32:10.396Z,22.30
2018-03-25T06:34:36.821Z,23.13
2018-03-25T06:37:03.098Z,21.87
2018-03-25T06:39:29.422Z,22.23
2018-03-25T06:41:56.378Z,22.50
2018-03-25T06:44:22.672Z,21.47
2018-03-25T06:46:49.671Z,23.67
2018-03-25T06:49:15.956Z,23.73
2018-03-25T06:51:42.234Z,24.90
2018-03-25T06:54:08.477Z,24.00
2018-03-25T06:56:34.749Z,24.57
2018-03-25T06:59:01.034Z,25.07
2018-03-25T07:01:28.037Z,26.33
2018-03-25T07:03:54.294Z,26.63
2018-03-25T07:06:20.548Z,25.17
2018-03-25T07:08:46.814Z,26.83
2018-03-25T07:11:13.876Z,26.17
2018-03-25T07:13:40.986Z,26.17
2018-03-25T07:16:07.992Z,25.00
2018-03-25T07:18:34.981Z,26.77
2018-03-25T07:21:01.222Z,26.53
2018-03-25T07:23:27.512Z,26.13
2018-03-25T07:25:53.734Z,24.63
2018-03-25T07:28:20.035Z,26.10
2018-03-25T07:30:46.342Z,26.57
2018-03-25T07:33:12.801Z,26.67
2018-03-25T07:35:39.824Z,26.53
2018-03-25T07:38:06.098Z,26.73
2018-03-25T07:40:32.406Z,27.30
2018-03-25T07:42:58.691Z,26.73
2018-03-25T07:45:25.726Z,26.17
2018-03-25T07:47:52.120Z,25.70
2018-03-25T07:50:18.405Z,26.83
2018-03-25T07:52:44.732Z,26.40
2018-03-25T07:55:10.985Z,25.07
2018-03-25T07:57:37.278Z,25.57
2018-03-25T08:00:04.312Z,26.43
2018-03-25T08:02:30.659Z,27.47
2018-03-25T08:04:56.884Z,25.73
2018-03-25T08:07:23.217Z,24.97
2018-03-25T08:09:49.484Z,23.10
2018-03-25T08:12:15.778Z,23.47
2018-03-25T08:14:42.083Z,24.33
2018-03-25T08:17:09.118Z,22.50
2018-03-25T08:19:35.530Z,20.70
2018-03-25T08:22:01.836Z,23.90
2018-03-25T08:24:28.898Z,23.63
2018-03-25T08:26:55.951Z,21.50
2018-03-25T08:29:22.244Z,24.20
2018-03-25T08:31:48.592Z,24.73
2018-03-25T08:34:14.882Z,22.83
2018-03-25T08:36:41.177Z,22.90
2018-03-25T08:39:07.471Z,22.07
2018-03-25T08:41:34.542Z,24.37
2018-03-25T08:44:01.552Z,24.33
2018-03-25T08:46:28.548Z,23.10
2018-03-25T08:48:55.542Z,23.17
2018-03-25T08:51:22.307Z,23.73
2018-03-25T08:53:48.777Z,26.17
2018-03-25T08:56:15.107Z,24.67
2018-03-25T08:58:41.528Z,24.60
2018-03-25T09:01:07.880Z,24.13
2018-03-25T09:03:34.169Z,23.60
2018-03-25T09:06:00.467Z,24.53
2018-03-25T09:08:26.755Z,23.67
2018-03-25T09:10:53.028Z,24.67
2018-03-25T09:13:19.291Z,25.60
2018-03-25T09:15:46.267Z,23.10
2018-03-25T09:18:13.286Z,24.23
2018-03-25T09:20:39.542Z,24.43
2018-03-25T09:23:05.794Z,25.00
2018-03-25T09:25:32.095Z,24.10
2018-03-25T09:27:59.157Z,23.00
2018-03-25T09:30:26.263Z,22.23
2018-03-25T09:32:53.148Z,24.90
2018-03-25T09:35:19.452Z,23.83
2018-03-25T09:37:45.963Z,22.67
2018-03-25T09:40:12.964Z,23.53
2018-03-25T09:42:39.208Z,22.67
2018-03-25T09:45:05.566Z,24.37
2018-03-25T09:47:31.924Z,23.80
2018-03-25T09:49:59.128Z,25.03
2018-03-25T09:52:25.504Z,25.20
2018-03-25T09:54:51.814Z,25.50
2018-03-25T09:57:18.208Z,25.17
2018-03-25T09:59:45.562Z,22.80
2018-03-25T10:02:26.805Z,24.13
2018-03-25T10:04:53.925Z,23.00
2018-03-25T10:07:20.302Z,28.43
2018-03-25T10:09:46.714Z,22.67
2018-03-25T10:12:13.042Z,24.07
2018-03-25T10:14:39.348Z,22.53
2018-03-25T10:17:06.371Z,22.90
2018-03-25T10:19:32.697Z,23.47
2018-03-25T10:21:58.993Z,22.20
2018-03-25T10:24:26.024Z,22.93
2018-03-25T10:26:53.871Z,21.50
2018-03-25T10:29:20.957Z,21.17
2018-03-25T10:31:47.406Z,20.87
2018-03-25T10:34:13.712Z,23.23
2018-03-25T10:36:40.033Z,20.80
2018-03-25T10:39:06.331Z,22.07
2018-03-25T10:41:32.623Z,22.37
2018-03-25T10:43:59.037Z,22.37
2018-03-25T10:46:25.325Z,22.43
2018-03-25T10:48:51.868Z,22.47
2018-03-25T10:51:18.281Z,22.57
2018-03-25T10:53:44.661Z,22.53
2018-03-25T10:56:10.994Z,21.80
2018-03-25T10:58:37.281Z,21.57
2018-03-25T11:01:03.617Z,21.13
2018-03-25T11:03:29.944Z,17.33
2018-03-25T11:05:56.311Z,22.23
2018-03-25T11:08:22.585Z,18.47
2018-03-25T11:10:49.651Z,20.70
2018-03-25T11:13:16.787Z,19.63
2018-03-25T11:15:43.970Z,19.53
2018-03-25T11:18:11.062Z,18.87
2018-03-25T11:20:37.349Z,19.70
2018-03-25T11:23:03.721Z,21.10
2018-03-25T11:25:31.480Z,18.80
2018-03-25T11:27:58.515Z,19.43
2018-03-25T11:30:25.194Z,19.50
2018-03-25T11:32:51.968Z,21.10
2018-03-25T11:35:19.097Z,18.23
2018-03-25T11:37:45.860Z,20.67
2018-03-25T11:40:13.196Z,20.53
2018-03-25T11:42:40.011Z,19.70
2018-03-25T11:45:06.410Z,18.00
2018-03-25T11:47:32.703Z,20.40
2018-03-25T11:49:59.017Z,20.47
2018-03-25T11:52:26.074Z,19.93
2018-03-25T11:54:52.353Z,18.73
2018-03-25T11:57:18.802Z,18.93
2018-03-25T11:59:45.838Z,17.80
2018-03-25T12:02:12.213Z,20.07
2018-03-25T12:04:38.571Z,20.27
2018-03-25T12:07:04.884Z,22.17
2018-03-25T12:09:31.212Z,19.27
2018-03-25T12:11:57.485Z,20.80
2018-03-25T12:14:24.569Z,18.40
2018-03-25T12:16:50.946Z,20.97
2018-03-25T12:19:17.557Z,19.27
2018-03-25T12:21:44.010Z,19.20
2018-03-25T12:24:10.310Z,19.93
2018-03-25T12:26:37.446Z,18.80
2018-03-25T12:29:03.939Z,19.70
2018-03-25T12:31:30.202Z,19.67
2018-03-25T12:33:56.497Z,19.97
2018-03-25T12:36:23.613Z,19.60
2018-03-25T12:38:50.003Z,20.47
2018-03-25T12:41:16.576Z,19.57
2018-03-25T12:43:42.961Z,18.87
2018-03-25T12:46:09.323Z,17.77
2018-03-25T12:48:36.363Z,21.07
2018-03-25T12:51:02.901Z,20.80
2018-03-25T12:53:29.241Z,17.73
2018-03-25T12:55:55.523Z,15.13
2018-03-25T12:58:22.673Z,19.30
2018-03-25T13:00:49.037Z,18.10
2018-03-25T13:03:16.386Z,19.40
2018-03-25T13:05:42.633Z,20.90
2018-03-25T13:08:09.658Z,20.47
2018-03-25T13:10:35.945Z,19.40
2018-03-25T13:13:02.244Z,21.83
2018-03-25T13:15:28.623Z,19.73
2018-03-25T13:17:55.657Z,17.30
2018-03-25T13:20:22.026Z,19.83
2018-03-25T13:22:48.408Z,20.97
2018-03-25T13:25:14.693Z,21.70
2018-03-25T13:27:40.920Z,20.90
2018-03-25T13:30:07.282Z,20.97
2018-03-25T13:32:33.652Z,21.60
2018-03-25T13:35:00.645Z,17.00
2018-03-25T13:37:26.930Z,20.17
2018-03-25T13:39:53.344Z,22.00
2018-03-25T13:42:20.469Z,19.43
2018-03-25T13:44:54.036Z,19.00
2018-03-25T13:47:20.319Z,18.97
2018-03-25T13:49:46.625Z,21.93
2018-03-25T13:52:12.996Z,18.37
2018-03-25T13:54:39.284Z,21.03
2018-03-25T13:57:05.616Z,22.20
2018-03-25T13:59:31.916Z,20.67
2018-03-25T14:01:58.217Z,21.73
2018-03-25T14:04:24.549Z,21.40
2018-03-25T14:06:51.064Z,18.80
2018-03-25T14:09:18.510Z,21.60
2018-03-25T14:11:44.833Z,21.43
2018-03-25T14:14:11.191Z,21.97
2018-03-25T14:16:37.632Z,19.97
2018-03-25T14:19:03.960Z,20.70
2018-03-25T14:21:30.219Z,18.07
2018-03-25T14:23:56.552Z,21.57
2018-03-25T14:26:22.908Z,19.93
2018-03-25T14:28:49.402Z,19.77
2018-03-25T14:31:19.210Z,21.13
2018-03-25T14:33:45.720Z,20.33
2018-03-25T14:36:12.082Z,20.53
2018-03-25T14:38:45.481Z,16.77
2018-03-25T14:41:11.832Z,18.57
2018-03-25T14:43:38.125Z,19.47
2018-03-25T14:46:04.505Z,20.67
2018-03-25T14:48:31.024Z,20.63
2018-03-25T14:50:57.697Z,20.80
2018-03-25T14:53:24.174Z,20.77
2018-03-25T14:55:51.303Z,21.40
2018-03-25T14:58:17.937Z,21.10
2018-03-25T15:00:44.409Z,20.87
2018-03-25T15:03:11.783Z,20.30
2018-03-25T15:05:38.086Z,18.90
2018-03-25T15:08:05.141Z,17.03
2018-03-25T15:10:31.636Z,20.53
2018-03-25T15:12:58.269Z,19.90
2018-03-25T15:15:25.291Z,20.70
2018-03-25T15:17:52.765Z,19.97
2018-03-25T15:20:19.468Z,20.37
2018-03-25T15:22:46.055Z,20.47
2018-03-25T15:25:12.397Z,20.63
2018-03-25T15:27:38.736Z,20.47
2018-03-25T15:30:05.139Z,18.53
2018-03-25T15:32:31.452Z,18.37
2018-03-25T15:34:57.837Z,18.53
2018-03-25T15:37:24.264Z,19.63
2018-03-25T15:39:50.907Z,19.43
2018-03-25T15:42:17.598Z,19.50
2018-03-25T15:44:44.115Z,19.00
2018-03-25T15:47:10.586Z,19.33
2018-03-25T15:49:37.016Z,17.40
2018-03-25T15:52:03.442Z,19.67
2018-03-25T15:54:30.002Z,19.27
2018-03-25T15:56:56.296Z,18.10
2018-03-25T15:59:22.825Z,18.70
2018-03-25T16:01:49.992Z,18.10
2018-03-25T16:04:16.737Z,18.30
2018-03-25T16:06:43.961Z,18.70
2018-03-25T16:09:10.334Z,18.93
2018-03-25T16:11:36.743Z,18.73
2018-03-25T16:14:03.174Z,20.13
2018-03-25T16:16:29.510Z,19.67
2018-03-25T16:18:55.890Z,19.23
2018-03-25T16:21:22.142Z,19.50
2018-03-25T16:23:48.637Z,18.43
2018-03-25T16:26:15.101Z,19.37
2018-03-25T16:28:41.481Z,19.77
2018-03-25T16:31:07.789Z,19.17
2018-03-25T16:33:34.071Z,18.67
2018-03-25T16:36:00.364Z,18.83
2018-03-25T16:38:26.724Z,17.97
2018-03-25T16:40:53.047Z,18.63
2018-03-25T16:43:19.351Z,18.70
2018-03-25T16:45:46.603Z,18.17
2018-03-25T16:48:14.611Z,18.63
2018-03-25T16:50:44.075Z,17.97
2018-03-25T16:53:10.407Z,17.83
2018-03-25T16:55:36.691Z,17.37
2018-03-25T16:58:02.973Z,18.07
2018-03-25T17:00:29.295Z,18.60
2018-03-25T17:02:56.418Z,18.83
2018-03-25T17:05:22.679Z,20.80
2018-03-25T17:07:49.079Z,23.13
2018-03-25T17:10:15.429Z,25.40
2018-03-25T17:12:41.696Z,25.37
2018-03-25T17:15:08.063Z,25.07
2018-03-25T17:17:34.381Z,25.07
2018-03-25T17:20:00.739Z,25.23
2018-03-25T17:22:27.080Z,25.80
2018-03-25T17:24:53.430Z,25.77
2018-03-25T17:27:19.794Z,24.80
2018-03-25T17:29:46.312Z,25.43
2018-03-25T17:32:12.739Z,24.90
2018-03-25T17:34:39.094Z,26.00
2018-03-25T17:37:05.369Z,25.67
2018-03-25T17:39:32.435Z,25.37
2018-03-25T17:41:59.499Z,25.70
2018-03-25T17:44:25.788Z,26.07
2018-03-25T17:46:55.837Z,26.13
2018-03-25T17:49:22.147Z,27.67
2018-03-25T17:51:48.517Z,27.10
2018-03-25T17:54:16.920Z,26.37
2018-03-25T17:56:43.275Z,27.10
2018-03-25T17:59:09.611Z,27.57
2018-03-25T18:01:35.948Z,28.80
2018-03-25T18:04:02.260Z,28.83
2018-03-25T18:06:28.527Z,29.23
2018-03-25T18:08:54.869Z,26.40
2018-03-25T18:11:22.463Z,27.70
2018-03-25T18:13:49.691Z,29.43
2018-03-25T18:16:15.995Z,28.67
2018-03-25T18:18:42.334Z,30.33
2018-03-25T18:21:08.646Z,29.47
2018-03-25T18:23:35.002Z,30.00
2018-03-25T18:26:02.194Z,30.73
2018-03-25T18:28:28.484Z,28.87
2018-03-25T18:30:55.157Z,27.43
2018-03-25T18:33:22.323Z,26.67
2018-03-25T18:35:48.667Z,26.03
2018-03-25T18:38:14.904Z,29.13
2018-03-25T18:40:42.022Z,30.13
2018-03-25T18:43:08.285Z,29.77
2018-03-25T18:45:34.581Z,30.10
2018-03-25T18:48:00.865Z,30.50
2018-03-25T18:50:27.202Z,31.23
2018-03-25T18:52:53.464Z,31.40
2018-03-25T18:55:19.855Z,33.37
2018-03-25T18:57:46.226Z,30.67
2018-03-25T19:00:12.538Z,32.27
2018-03-25T19:02:38.845Z,30.97
2018-03-25T19:05:05.109Z,34.57
2018-03-25T19:07:32.130Z,33.03
2018-03-25T19:09:58.429Z,30.80
2018-03-25T19:12:24.776Z,31.17
2018-03-25T19:14:51.157Z,32.27
2018-03-25T19:17:17.645Z,29.30
2018-03-25T19:19:44.608Z,29.67
2018-03-25T19:22:10.911Z,29.10
2018-03-25T19:24:37.279Z,29.00
2018-03-25T19:27:05.347Z,28.67
2018-03-25T19:29:31.659Z,28.53
2018-03-25T19:31:58.696Z,29.83
2018-03-25T19:34:25.975Z,32.50
2018-03-25T19:36:52.412Z,29.97
2018-03-25T19:39:30.118Z,33.80
2018-03-25T19:41:56.456Z,31.50
2018-03-25T19:44:22.866Z,32.53
2018-03-25T19:46:49.983Z,34.07
2018-03-25T19:49:16.687Z,35.53
2018-03-25T19:51:43.723Z,34.43
2018-03-25T19:54:10.021Z,34.60
2018-03-25T19:56:36.315Z,34.23
2018-03-25T19:59:14.285Z,31.90
2018-03-25T20:01:40.623Z,32.77
2018-03-25T20:04:07.025Z,31.67
2018-03-25T20:06:33.315Z,29.17
2018-03-25T20:08:59.632Z,33.37
2018-03-25T20:11:26.640Z,31.70
2018-03-25T20:13:53.042Z,33.30
2018-03-25T20:16:19.550Z,35.40
2018-03-25T20:18:46.025Z,34.27
2018-03-25T20:21:13.124Z,32.23
2018-03-25T20:23:39.486Z,36.70
2018-03-25T20:26:06.006Z,34.37
2018-03-25T20:28:32.470Z,34.57
2018-03-25T20:30:58.946Z,37.23
2018-03-25T20:33:25.224Z,35.57
2018-03-25T20:35:51.559Z,38.57
2018-03-25T20:38:18.766Z,33.97
2018-03-25T20:40:45.058Z,37.43
2018-03-25T20:43:12.506Z,35.00
2018-03-25T20:45:39.891Z,34.10
2018-03-25T20:48:08.047Z,34.17
2018-03-25T20:50:34.327Z,33.43
2018-03-25T20:53:01.444Z,33.47
2018-03-25T20:55:27.667Z,33.63
2018-03-25T20:57:53.909Z,34.07
2018-03-25T21:00:20.187Z,33.20
2018-03-25T21:02:46.639Z,33.83
2018-03-25T21:05:12.976Z,32.00
2018-03-25T21:07:39.417Z,34.47
2018-03-25T21:10:05.761Z,34.27
2018-03-25T21:12:32.038Z,33.50
2018-03-25T21:14:59.074Z,34.40
2018-03-25T21:17:25.388Z,35.87
2018-03-25T21:19:51.747Z,36.13
2018-03-25T21:22:18.194Z,35.10
2018-03-25T21:24:44.449Z,39.67
2018-03-25T21:27:10.696Z,41.23
2018-03-25T21:29:37.710Z,40.03
2018-03-25T21:32:04.024Z,39.57
2018-03-25T21:34:30.294Z,40.73
2018-03-25T21:36:56.561Z,40.43
2018-03-25T21:39:22.881Z,38.20
2018-03-25T21:41:49.209Z,38.23
2018-03-25T21:44:15.487Z,36.97
2018-03-25T21:46:41.755Z,37.30
2018-03-25T21:49:08.131Z,35.40
2018-03-25T21:51:34.389Z,36.37
2018-03-25T21:54:00.677Z,34.13
2018-03-25T21:56:26.981Z,35.27
2018-03-25T21:58:53.264Z,34.90
2018-03-25T22:01:19.615Z,36.40
2018-03-25T22:03:46.718Z,37.57
2018-03-25T22:06:12.998Z,37.17
2018-03-25T22:08:39.314Z,37.27
2018-03-25T22:11:05.607Z,32.97
2018-03-25T22:13:32.611Z,35.43
2018-03-25T22:15:58.915Z,31.03
2018-03-25T22:18:29.822Z,36.20
2018-03-25T22:20:59.037Z,36.03
2018-03-25T22:23:25.309Z,36.50
2018-03-25T22:25:51.725Z,36.97
2018-03-25T22:28:18.012Z,34.80
2018-03-25T22:30:44.335Z,33.60
2018-03-25T22:33:11.357Z,32.80
2018-03-25T22:35:37.619Z,35.27
2018-03-25T22:38:03.916Z,32.07
2018-03-25T22:40:30.273Z,33.60
2018-03-25T22:42:56.574Z,33.03
2018-03-25T22:45:23.641Z,29.80
2018-03-25T22:47:50.672Z,30.80
2018-03-25T22:50:17.154Z,34.60
2018-03-25T22:52:43.433Z,30.83
2018-03-25T22:55:09.725Z,29.27
2018-03-25T22:57:36.766Z,34.23
2018-03-25T23:00:03.044Z,33.17
2018-03-25T23:02:29.352Z,33.73
2018-03-25T23:04:55.641Z,30.33
2018-03-25T23:07:22.018Z,34.73
2018-03-25T23:09:48.354Z,34.53
2018-03-25T23:12:14.664Z,34.97
2018-03-25T23:14:40.970Z,34.30
2018-03-25T23:17:07.243Z,34.40
2018-03-25T23:19:33.492Z,34.30
2018-03-25T23:21:59.763Z,33.83
2018-03-25T23:24:32.991Z,32.60
2018-03-25T23:26:59.243Z,32.33
2018-03-25T23:29:25.500Z,34.27
2018-03-25T23:31:52.557Z,36.70
2018-03-25T23:34:18.802Z,35.87
2018-03-25T23:36:46.847Z,34.87
2018-03-25T23:39:13.102Z,33.97
2018-03-25T23:41:40.831Z,34.67
2018-03-25T23:44:07.101Z,33.90
2018-03-25T23:46:39.358Z,30.70
2018-03-25T23:49:05.697Z,36.37
2018-03-25T23:51:31.959Z,34.30
2018-03-25T23:53:58.255Z,35.77
2018-03-25T23:56:25.354Z,33.83
2018-03-25T23:58:51.615Z,32.00
